Aireys Inlet, Victoria

7:15 AM AEDT on October 22, 2014 (GMT +1100)
IVICTORI131 | Change Station
CLOSE
Current Station
Personal Weather Station
Location: Lorne, VICTORIA
Elevation: 295 ft
Nearby Weather Stations

Elev 295 ft 38.54 °S, 143.97 °E | Updated 39 seconds ago

Clear
Clear
61.6 °F
Feels Like 61.6 °F
N
2.0
Wind Variable Wind from SSE
Gusts 3.0 mph

Today
High -- | Low -- °F
--% Chance of Precip.
Yesterday
High -- | Low -- °F
Precip. -- in
6:28 AM 7:48 PM
Waning Crescent, 4% visible
Pressure 30.06 in
Visibility 6.2 miles
Clouds
Dew Point 53 °F
Humidity 74%
Rainfall 0.00 in
Snow Depth Not available.
UV Not available.
Pollen Not available.
Air Quality Not available.
Flu Activity Not available.
METAR YMAV 212000Z AUTO 05006KT 9999 // NCD 12/10 Q1018

More Conditions Fewer Conditions

Pressure 30.06 in
Visibility 6.2 miles
Clouds
Dew Point 53 °F
Humidity 74%
Rainfall 0.00 in
Snow Depth Not available.
UV Not available.
Pollen Not available.
Air Quality Not available.
Flu Activity Not available.
METAR YMAV 212000Z AUTO 05006KT 9999 // NCD 12/10 Q1018

More Conditions Fewer Conditions

10-Day Weather Forecast

Almanac

Astronomy

Oct. 22, 2014 Rise Set
Actual Time 6:28 AM AEDT 7:48 PM AEDT
Civil Twilight 6:01 AM AEDT 8:15 PM AEDT
Nautical Twilight 5:28 AM AEDT 8:48 PM AEDT
Astronomical Twilight 4:53 AM AEDT 9:23 PM AEDT
Moon 5:26 AM AEDT (10/22) 6:12 PM AEDT (10/22)
Length of Visible Light 14h 14m
Length of Day
13h 19m
Tomorrow will be 2m 22s longer.
Waning Crescent, 4% of the Moon is Illuminated
Oct 21
Waning Crescent
Oct 23
New
Oct 30
First Quarter
Nov 6
Full
Nov 14
Last Quarter

Yesterday's Extremes

Country Highs Country Lows

Community

WunderPhotos

Upload Photos

1,763,758 photos uploaded!

Nearby

Snow Depth

Not available.

Earthquake Activity

City Distance Mag. Time & Date
No recent earthquake activity has been reported nearby.
Minimum magnitude displayed is 2.5.

Coastal Water Temperatures

Place Temperature
No Stations Reporting

Nearby Weather Stations